Time;durP1;ratioP1;P1;durP2;ratioP2;P2;SDS_P1;SDS_P2;PMS_P1;PMS_P2;Temp;Humidity;BMP_temperature;BMP_pressure;BME280_temperature;BME280_humidity;BME280_pressure;Samples;Min_cycle;Max_cycle;Signal;HPM_P1;HPM_P2
2023/07/16 00:02:23;;;;;;;4.53;3.08;;;;;;;25.17;85.43;98347.28;5115815;28;20174;-56
2023/07/16 00:04:48;;;;;;;5.32;3.17;;;;;;;25.15;85.70;98352.78;5115629;28;20178;-56
2023/07/16 00:07:14;;;;;;;5.32;3.40;;;;;;;25.60;84.08;98383.94;5115756;28;20171;-56
2023/07/16 00:09:39;;;;;;;6.82;3.40;;;;;;;25.88;81.44;98392.56;5115649;28;20175;-56
2023/07/16 00:12:05;;;;;;;5.88;3.65;;;;;;;25.99;80.43;98389.34;5115555;28;20175;-56
2023/07/16 00:14:30;;;;;;;11.05;4.00;;;;;;;25.97;80.32;98388.72;5115527;27;20208;-56
2023/07/16 00:16:57;;;;;;;6.78;3.60;;;;;;;25.80;79.85;98366.25;5115642;28;20195;-56
2023/07/16 00:19:22;;;;;;;4.88;3.55;;;;;;;25.70;81.91;98402.91;5115446;28;20180;-56
2023/07/16 00:21:48;;;;;;;4.72;3.42;;;;;;;25.63;82.71;98393.31;5115137;28;20167;-56
2023/07/16 00:24:13;;;;;;;3.53;3.15;;;;;;;25.75;82.29;98397.84;5115399;28;20202;-56
2023/07/16 00:26:38;;;;;;;4.63;3.28;;;;;;;25.71;81.68;98386.00;5115347;28;20183;-56
2023/07/16 00:29:04;;;;;;;5.78;3.70;;;;;;;25.56;82.16;98376.59;5115304;28;20214;-56
2023/07/16 00:31:30;;;;;;;3.65;3.03;;;;;;;25.28;84.07;98374.06;5115215;28;20717;-56
2023/07/16 00:33:55;;;;;;;5.68;3.38;;;;;;;25.48;83.87;98388.16;5115215;28;20210;-56
2023/07/16 00:36:21;;;;;;;6.72;3.47;;;;;;;25.69;82.23;98388.03;5115079;28;20230;-55
2023/07/16 00:38:46;;;;;;;5.13;3.17;;;;;;;25.85;80.87;98392.97;5114895;28;20232;-55
2023/07/16 00:41:14;;;;;;;5.50;3.67;;;;;;;25.31;83.80;98363.03;5114180;28;20699;-56
2023/07/16 00:43:39;;;;;;;4.68;3.45;;;;;;;25.70;82.96;98402.91;5114951;28;20183;-56
2023/07/16 00:46:05;;;;;;;8.52;3.45;;;;;;;25.64;81.87;98369.25;5114943;28;20690;-56
2023/07/16 00:48:30;;;;;;;4.72;3.83;;;;;;;25.86;79.75;98378.69;5114544;28;20223;-55
2023/07/16 00:50:56;;;;;;;5.90;3.53;;;;;;;25.82;78.57;98372.16;5114537;28;20255;-56
2023/07/16 00:53:22;;;;;;;4.50;3.35;;;;;;;25.76;78.97;98372.97;5114793;28;20186;-55
2023/07/16 00:55:48;;;;;;;3.70;3.40;;;;;;;25.75;80.36;98403.13;5114795;28;20206;-55
2023/07/16 00:58:13;;;;;;;4.13;3.65;;;;;;;25.75;80.24;98397.84;5114622;28;20234;-56
2023/07/16 01:00:40;;;;;;;5.57;3.45;;;;;;;25.24;83.78;98387.88;5114702;28;20258;-56
2023/07/16 01:03:08;;;;;;;6.78;3.97;;;;;;;25.00;86.33;98391.81;5114540;28;20651;-56
2023/07/16 01:05:42;;;;;;;6.20;4.30;;;;;;;24.44;91.72;98382.25;5114538;28;20317;-55
2023/07/16 01:08:10;;;;;;;5.15;3.65;;;;;;;24.17;93.44;98367.22;5114558;28;20189;-55
2023/07/16 01:10:37;;;;;;;4.60;4.20;;;;;;;24.20;94.81;98382.69;5114349;28;20666;-55
2023/07/16 01:13:03;;;;;;;5.55;4.00;;;;;;;24.21;95.61;98378.25;5114473;28;20255;-56
2023/07/16 01:15:29;;;;;;;5.70;4.25;;;;;;;23.95;97.71;98380.63;5114389;28;20182;-56
2023/07/16 01:17:54;;;;;;;5.78;4.38;;;;;;;23.84;98.38;98360.78;5114250;28;20202;-56
2023/07/16 01:20:20;;;;;;;7.80;4.20;;;;;;;24.36;96.21;98392.16;5114328;28;20167;-56
2023/07/16 01:23:12;;;;;;;8.38;3.95;;;;;;;24.54;92.91;98390.69;5114279;28;20178;-56
2023/07/16 01:25:55;;;;;;;6.85;4.07;;;;;;;24.63;92.47;98389.56;5114238;28;20167;-56
2023/07/16 01:28:35;;;;;;;3.95;3.50;;;;;;;24.53;92.34;98388.22;5114223;28;20198;-56
2023/07/16 01:31:01;;;;;;;3.97;3.67;;;;;;;24.27;93.23;98353.66;5114198;28;20178;-56
2023/07/16 01:33:27;;;;;;;4.00;3.70;;;;;;;24.50;92.06;98386.78;5114015;28;20171;-56
2023/07/16 01:35:53;;;;;;;4.75;4.03;;;;;;;24.26;93.12;98355.47;5114054;28;20171;-56
2023/07/16 01:38:20;;;;;;;4.30;3.92;;;;;;;24.31;93.04;98363.66;5113928;28;20548;-55
2023/07/16 01:40:46;;;;;;;4.50;4.10;;;;;;;24.57;92.97;98389.53;5113836;28;20175;-56
2023/07/16 01:43:12;;;;;;;4.78;4.28;;;;;;;24.84;90.37;98394.78;5113841;28;20179;-55
2023/07/16 01:45:37;;;;;;;4.80;4.30;;;;;;;24.49;91.75;98395.75;5113782;27;20203;-56
2023/07/16 01:48:26;;;;;;;5.70;4.25;;;;;;;24.39;93.09;98403.19;5113772;28;20171;-56
2023/07/16 01:50:51;;;;;;;5.70;4.22;;;;;;;24.45;90.46;98369.88;5085431;28;20184;-56
2023/07/16 01:53:17;;;;;;;5.47;4.18;;;;;;;24.34;92.36;98384.44;5090838;28;20195;-56
2023/07/16 01:55:42;;;;;;;4.30;3.67;;;;;;;24.48;91.27;98393.28;5090786;28;20187;-56
2023/07/16 01:58:09;;;;;;;5.43;4.15;;;;;;;24.15;94.28;98390.38;5090770;28;20199;-56
2023/07/16 02:00:35;;;;;;;5.40;3.97;;;;;;;23.67;97.81;98373.63;5090675;28;20184;-55
2023/07/16 02:03:01;;;;;;;4.78;4.38;;;;;;;23.48;100.00;98374.25;5090710;28;20721;-56
2023/07/16 02:05:26;;;;;;;5.88;3.92;;;;;;;23.74;99.32;98397.28;5090393;28;20286;-55
2023/07/16 02:07:51;;;;;;;5.18;4.70;;;;;;;23.68;98.77;98382.19;5090524;28;20195;-56
2023/07/16 02:10:17;;;;;;;6.40;4.30;;;;;;;23.63;100.00;98379.28;5090482;28;20321;-56
2023/07/16 02:12:42;;;;;;;6.82;5.05;;;;;;;23.33;100.00;98382.22;5090497;28;20183;-56
2023/07/16 02:15:08;;;;;;;4.40;4.10;;;;;;;23.27;100.00;98384.75;5090408;28;20187;-56
2023/07/16 02:17:33;;;;;;;6.18;5.03;;;;;;;23.19;100.00;98377.75;5090265;28;20269;-55
2023/07/16 02:19:59;;;;;;;5.65;5.05;;;;;;;23.14;100.00;98374.81;5090402;28;20172;-55
2023/07/16 02:22:24;;;;;;;4.97;4.47;;;;;;;23.39;100.00;98391.19;5103761;28;20179;-55
2023/07/16 02:24:49;;;;;;;5.18;4.57;;;;;;;23.80;100.00;98409.75;5113270;28;20230;-56
2023/07/16 02:27:15;;;;;;;6.60;5.07;;;;;;;24.04;99.34;98408.59;5113018;28;20211;-55
2023/07/16 02:29:40;;;;;;;4.85;4.35;;;;;;;23.97;98.58;98406.88;5112964;28;20178;-56
2023/07/16 02:32:06;;;;;;;5.72;4.07;;;;;;;23.81;98.81;98387.59;5112918;28;20179;-56
2023/07/16 02:34:31;;;;;;;7.07;4.90;;;;;;;23.56;100.00;98397.91;5112863;28;20193;-55
2023/07/16 02:36:57;;;;;;;7.55;5.00;;;;;;;23.28;100.00;98384.59;5112856;28;20206;-56
2023/07/16 02:39:22;;;;;;;6.03;5.43;;;;;;;23.23;100.00;98391.41;5112816;28;20733;-55
2023/07/16 02:41:47;;;;;;;6.07;4.57;;;;;;;23.23;100.00;98417.81;5112838;28;20266;-55
2023/07/16 02:44:13;;;;;;;7.35;4.72;;;;;;;23.06;100.00;98371.47;5113007;28;20220;-56
2023/07/16 02:46:38;;;;;;;7.32;4.88;;;;;;;22.99;100.00;98389.03;5112968;28;20232;-55
2023/07/16 02:49:04;;;;;;;4.85;4.30;;;;;;;23.29;100.00;98409.97;5112561;28;20660;-56
2023/07/16 02:51:30;;;;;;;6.20;4.38;;;;;;;23.19;100.00;98421.84;5112614;28;20182;-56
2023/07/16 02:53:55;;;;;;;5.75;4.50;;;;;;;23.10;100.00;98394.69;5112646;28;20586;-55
2023/07/16 02:56:20;;;;;;;5.80;5.18;;;;;;;23.08;100.00;98404.59;5112542;28;20199;-56
2023/07/16 02:58:46;;;;;;;5.25;4.82;;;;;;;22.84;100.00;98407.50;5112568;28;20759;-55
2023/07/16 03:01:12;;;;;;;7.63;4.85;;;;;;;22.78;100.00;98391.59;5112520;28;20167;-56
2023/07/16 03:03:37;;;;;;;9.57;6.43;;;;;;;22.71;100.00;98409.13;5112033;28;20559;-55
2023/07/16 03:06:03;;;;;;;5.97;5.43;;;;;;;22.73;100.00;98420.34;5111956;28;20221;-55
2023/07/16 03:08:29;;;;;;;7.28;6.10;;;;;;;22.75;100.00;98402.50;5112419;28;20565;-55
2023/07/16 03:10:56;;;;;;;8.25;5.90;;;;;;;22.90;100.00;98421.81;5112313;28;20203;-55
2023/07/16 03:13:21;;;;;;;6.68;5.90;;;;;;;22.67;100.00;98382.31;5112345;28;20179;-56
2023/07/16 03:15:47;;;;;;;33.65;23.65;;;;;;;22.76;100.00;98396.22;5112079;28;20179;-56
2023/07/16 03:18:12;;;;;;;9.35;7.00;;;;;;;22.85;100.00;98414.44;5112259;28;20195;-56
2023/07/16 03:20:37;;;;;;;7.53;6.82;;;;;;;22.93;100.00;98405.59;5112023;28;20254;-55
2023/07/16 03:23:03;;;;;;;8.85;6.95;;;;;;;22.85;100.00;98418.91;5112294;28;20175;-56
2023/07/16 03:25:28;;;;;;;7.55;6.85;;;;;;;;;;5111994;28;20171;-55
2023/07/16 03:27:53;;;;;;;13.97;6.67;;;;;;;22.69;100.00;98388.25;5111982;28;20194;-55
2023/07/16 03:30:19;;;;;;;9.73;7.10;;;;;;;22.87;100.00;98406.34;5111956;28;20492;-55
2023/07/16 03:32:44;;;;;;;8.30;7.25;;;;;;;23.08;100.00;98436.25;5111907;28;20179;-56
2023/07/16 03:35:10;;;;;;;10.13;7.00;;;;;;;23.24;100.00;98424.75;5112206;28;20218;-55
2023/07/16 03:37:35;;;;;;;7.82;6.78;;;;;;;23.38;100.00;98431.81;5112083;28;20195;-55
2023/07/16 03:40:13;;;;;;;9.85;7.20;;;;;;;23.42;100.00;98411.97;5112184;28;20176;-56
2023/07/16 03:42:38;;;;;;;11.05;5.88;;;;;;;23.67;100.00;98438.69;5112173;28;20167;-55
2023/07/16 03:45:04;;;;;;;8.10;5.60;;;;;;;23.66;100.00;98424.84;5112062;28;20190;-56
2023/07/16 03:47:30;;;;;;;5.35;4.75;;;;;;;23.74;100.00;98417.63;5112055;28;20210;-55
2023/07/16 03:49:55;;;;;;;8.65;5.22;;;;;;;24.07;100.00;98436.47;5112063;28;20175;-56
2023/07/16 03:52:20;;;;;;;7.07;5.95;;;;;;;24.32;100.00;98446.50;5111735;28;20267;-56
2023/07/16 03:54:46;;;;;;;8.98;5.25;;;;;;;24.28;100.00;98406.38;5112044;28;20207;-55
2023/07/16 03:57:11;;;;;;;6.85;5.03;;;;;;;24.65;100.00;98447.56;5111965;28;20206;-55
2023/07/16 03:59:36;;;;;;;5.95;5.13;;;;;;;24.80;98.45;98443.03;5112009;28;20210;-56
2023/07/16 04:02:02;;;;;;;6.32;5.30;;;;;;;24.79;97.62;98420.22;5111934;28;20645;-56
2023/07/16 04:04:27;;;;;;;5.70;5.20;;;;;;;24.88;97.13;98450.81;5111827;28;20258;-55
2023/07/16 04:06:53;;;;;;;6.43;5.80;;;;;;;24.97;95.56;98429.25;5112120;28;20215;-56
2023/07/16 04:09:18;;;;;;;5.30;4.78;;;;;;;24.99;94.19;98435.22;5111884;28;20178;-56
2023/07/16 04:11:43;;;;;;;8.63;4.80;;;;;;;25.19;93.55;98452.00;5111594;28;20688;-56
2023/07/16 04:14:09;;;;;;;7.40;4.10;;;;;;;25.23;92.58;98445.31;5112111;28;20186;-56
2023/07/16 04:16:34;;;;;;;6.07;5.47;;;;;;;25.49;91.56;98460.56;5113927;28;20793;-56
2023/07/16 04:18:59;;;;;;;10.35;4.45;;;;;;;25.52;89.75;98450.38;5115316;28;20168;-56
2023/07/16 04:21:25;;;;;;;5.20;4.70;;;;;;;25.63;88.98;98449.81;5115472;28;20320;-55
2023/07/16 04:23:50;;;;;;;5.70;4.25;;;;;;;25.57;89.01;98439.16;5115439;28;20175;-55
2023/07/16 04:26:15;;;;;;;5.63;4.90;;;;;;;25.81;88.29;98460.66;5115322;28;20258;-56
2023/07/16 04:28:41;;;;;;;8.07;5.20;;;;;;;25.64;88.20;98422.28;5115354;28;20232;-56
2023/07/16 04:31:06;;;;;;;9.25;5.80;;;;;;;25.75;87.87;98437.59;5115248;28;20270;-56
2023/07/16 04:33:32;;;;;;;8.68;5.63;;;;;;;25.80;88.00;98443.13;5115218;28;20163;-56
2023/07/16 04:35:57;;;;;;;6.03;5.15;;;;;;;25.81;89.03;98459.84;5115197;28;20167;-56
2023/07/16 04:38:22;;;;;;;9.32;5.30;;;;;;;25.74;88.14;98438.63;5115014;28;20306;-55
2023/07/16 04:40:48;;;;;;;8.15;5.35;;;;;;;25.86;87.69;98457.41;5115149;28;20258;-56
2023/07/16 04:43:13;;;;;;;6.45;5.65;;;;;;;26.00;87.85;98475.84;5115060;28;20239;-56
2023/07/16 04:45:39;;;;;;;10.27;5.50;;;;;;;25.82;88.04;98441.09;5114999;27;20175;-56
2023/07/16 04:48:05;;;;;;;6.38;5.30;;;;;;;26.12;87.97;98466.28;5114960;28;20171;-56
2023/07/16 04:50:30;;;;;;;9.63;5.57;;;;;;;26.07;87.42;98436.06;5114878;28;20175;-55
2023/07/16 04:52:56;;;;;;;8.27;5.82;;;;;;;26.23;87.25;98464.88;5114596;28;20203;-55
2023/07/16 04:55:21;;;;;;;6.97;5.80;;;;;;;26.35;85.86;98448.13;5114857;28;20179;-55
2023/07/16 04:57:46;;;;;;;9.30;6.20;;;;;;;26.57;84.78;98472.66;5114695;28;20688;-56
2023/07/16 05:00:12;;;;;;;8.10;6.10;;;;;;;26.61;82.19;98456.16;5114732;28;20172;-56
2023/07/16 05:02:37;;;;;;;7.53;5.82;;;;;;;26.72;82.39;98465.31;5114616;28;20199;-56
2023/07/16 05:05:03;;;;;;;6.07;4.80;;;;;;;26.95;81.58;98489.63;5114463;28;20305;-56
2023/07/16 05:07:29;;;;;;;9.18;5.47;;;;;;;26.97;80.26;98472.44;5114596;28;20175;-56
2023/07/16 05:09:54;;;;;;;5.95;5.25;;;;;;;27.16;79.79;98490.22;5114485;28;20259;-56
2023/07/16 05:12:19;;;;;;;6.70;5.35;;;;;;;27.21;79.58;98493.06;5114471;28;20236;-56
2023/07/16 05:14:47;;;;;;;6.70;5.75;;;;;;;27.09;79.25;98462.81;5114334;28;20171;-56
2023/07/16 05:17:14;;;;;;;9.70;5.93;;;;;;;27.34;78.46;98503.66;5113931;28;20252;-56
2023/07/16 05:19:39;;;;;;;12.43;6.18;;;;;;;26.95;78.92;98461.19;5114634;28;20629;-56
2023/07/16 05:22:05;;;;;;;11.45;5.38;;;;;;;26.92;79.17;98461.63;5114297;28;20228;-56
2023/07/16 05:24:31;;;;;;;8.77;5.30;;;;;;;26.93;79.59;98483.69;5114235;28;20220;-56
2023/07/16 05:26:57;;;;;;;6.05;5.45;;;;;;;26.94;79.53;98470.19;5113860;28;20254;-56
2023/07/16 05:29:22;;;;;;;10.13;5.20;;;;;;;26.96;79.36;98478.78;5114143;28;20263;-55
2023/07/16 05:31:48;;;;;;;5.63;5.00;;;;;;;27.16;79.01;98492.03;5114163;28;20522;-56
2023/07/16 05:34:13;;;;;;;5.75;5.15;;;;;;;27.22;78.82;98512.50;5114081;28;20186;-55
2023/07/16 05:36:41;;;;;;;6.40;5.60;;;;;;;27.06;78.63;98476.50;5113968;28;20255;-55
2023/07/16 05:39:08;;;;;;;9.63;5.78;;;;;;;27.30;77.90;98512.28;5113948;28;20629;-56
2023/07/16 05:41:33;;;;;;;7.60;5.18;;;;;;;27.11;77.48;98479.34;5111349;28;20187;-56
2023/07/16 05:43:59;;;;;;;8.57;4.85;;;;;;;27.36;76.33;98514.09;5111497;28;20300;-56
2023/07/16 05:46:24;;;;;;;5.80;5.15;;;;;;;27.24;76.53;98519.22;5111398;28;20187;-56
2023/07/16 05:48:50;;;;;;;7.53;5.10;;;;;;;27.14;76.46;98486.94;5111355;28;20179;-56
2023/07/16 05:51:15;;;;;;;7.65;5.28;;;;;;;27.30;77.20;98526.34;5090802;28;20324;-56
2023/07/16 05:53:40;;;;;;;11.00;5.25;;;;;;;27.25;76.50;98510.25;5091104;28;20195;-56
2023/07/16 05:56:06;;;;;;;13.88;6.05;;;;;;;27.28;76.55;98509.81;5090693;28;20176;-56
2023/07/16 05:58:31;;;;;;;9.50;6.00;;;;;;;27.36;77.05;98519.41;5090748;28;20276;-56
2023/07/16 06:00:56;;;;;;;10.60;5.75;;;;;;;27.24;76.73;98492.63;5090846;28;20260;-56
2023/07/16 06:03:22;;;;;;;11.40;5.95;;;;;;;27.33;76.50;98495.88;5090656;28;20188;-56
2023/07/16 06:05:47;;;;;;;7.88;5.15;;;;;;;27.39;75.71;98517.16;5090430;28;20199;-56
2023/07/16 06:08:13;;;;;;;10.65;5.97;;;;;;;27.30;75.63;98497.13;5090546;28;20179;-56
2023/07/16 06:10:38;;;;;;;8.70;6.07;;;;;;;27.32;76.38;98500.41;5090485;28;20176;-56
2023/07/16 06:13:04;;;;;;;7.30;5.40;;;;;;;27.44;75.69;98512.03;5090432;28;20241;-56
2023/07/16 06:15:29;;;;;;;9.18;5.53;;;;;;;27.59;74.94;98517.09;5090702;28;20245;-56
2023/07/16 06:17:55;;;;;;;8.57;6.10;;;;;;;27.50;75.16;98503.22;5091659;28;20215;-56
2023/07/16 06:20:20;;;;;;;8.70;6.07;;;;;;;27.58;74.65;98504.84;5110803;28;20175;-56
2023/07/16 06:22:46;;;;;;;9.32;6.05;;;;;;;27.45;75.61;98503.03;5110735;28;20711;-56
2023/07/16 06:25:12;;;;;;;8.80;6.47;;;;;;;27.35;75.67;98502.63;5110687;28;20683;-56
2023/07/16 06:27:38;;;;;;;8.43;6.70;;;;;;;27.38;76.43;98520.00;5110794;28;20265;-56
2023/07/16 06:30:05;;;;;;;7.45;5.78;;;;;;;27.45;76.34;98516.31;5112920;28;20261;-56
2023/07/16 06:32:31;;;;;;;10.52;5.85;;;;;;;27.51;75.93;98504.84;5112890;28;20671;-56
2023/07/16 06:34:56;;;;;;;8.82;6.00;;;;;;;27.64;75.12;98520.75;5112957;28;20167;-56
2023/07/16 06:37:23;;;;;;;10.95;5.78;;;;;;;27.54;74.60;98499.13;5112817;28;20202;-56
2023/07/16 06:39:49;;;;;;;6.20;5.70;;;;;;;27.62;74.97;98506.84;5111947;28;20205;-56
2023/07/16 06:42:14;;;;;;;12.25;5.72;;;;;;;27.58;75.63;98510.16;5112572;28;20266;-56
2023/07/16 06:44:40;;;;;;;11.88;6.50;;;;;;;27.82;75.60;98520.91;5113037;28;20230;-56
2023/07/16 06:47:05;;;;;;;6.07;5.55;;;;;;;27.96;74.74;98513.69;5112746;28;20175;-56
2023/07/16 06:49:32;;;;;;;7.90;5.93;;;;;;;27.90;73.87;98478.13;5112630;28;20214;-56
2023/07/16 06:51:57;;;;;;;12.52;5.93;;;;;;;28.16;73.17;98496.59;5112642;28;20637;-57
2023/07/16 06:54:22;;;;;;;7.32;6.03;;;;;;;28.18;72.20;98488.41;5112597;28;20176;-57
2023/07/16 06:56:48;;;;;;;6.45;5.78;;;;;;;28.40;72.80;98503.03;5112187;28;20225;-57
2023/07/16 06:59:13;;;;;;;9.75;6.70;;;;;;;28.27;71.96;98479.94;5112507;28;20179;-57
2023/07/16 07:01:38;;;;;;;8.93;6.70;;;;;;;28.40;71.27;98485.19;5112563;28;20621;-57
2023/07/16 07:04:04;;;;;;;12.00;6.88;;;;;;;28.48;71.34;98506.25;5112401;28;20175;-57
2023/07/16 07:06:29;;;;;;;12.77;6.63;;;;;;;28.49;71.47;98501.72;5112574;28;20247;-56
2023/07/16 07:08:56;;;;;;;8.20;6.30;;;;;;;28.42;70.94;98472.50;5112056;28;20195;-56
2023/07/16 07:11:21;;;;;;;8.85;6.30;;;;;;;28.52;71.06;98483.47;5112420;28;20183;-57
2023/07/16 07:13:47;;;;;;;9.65;6.32;;;;;;;28.73;70.35;98496.41;5112410;28;20191;-56
2023/07/16 07:16:12;;;;;;;7.35;6.38;;;;;;;28.79;70.19;98492.09;5112306;28;20257;-56
2023/07/16 07:18:38;;;;;;;9.27;6.80;;;;;;;28.96;68.56;98509.97;5112261;28;20178;-56
2023/07/16 07:21:03;;;;;;;11.43;6.70;;;;;;;28.91;68.86;98485.78;5112354;28;20179;-57
2023/07/16 07:23:28;;;;;;;10.13;6.60;;;;;;;28.88;69.16;98499.56;5112069;28;20166;-56
2023/07/16 07:25:54;;;;;;;13.20;6.93;;;;;;;29.03;68.88;98512.59;5112236;28;20171;-57
2023/07/16 07:28:20;;;;;;;12.48;6.30;;;;;;;28.99;69.35;98506.88;5112289;28;20548;-56
2023/07/16 07:30:45;;;;;;;14.30;6.93;;;;;;;29.00;69.99;98503.19;5112011;28;20204;-57
2023/07/16 07:33:11;;;;;;;11.88;6.60;;;;;;;28.99;69.23;98506.06;5112256;28;20183;-57
2023/07/16 07:35:37;;;;;;;14.93;6.78;;;;;;;29.02;68.49;98501.09;5111938;28;20241;-57
2023/07/16 07:38:02;;;;;;;12.00;7.50;;;;;;;28.78;69.55;98479.75;5112229;28;20684;-57
2023/07/16 07:40:28;;;;;;;9.52;6.43;;;;;;;28.88;69.05;98480.91;5112134;28;20171;-56
2023/07/16 07:42:53;;;;;;;10.43;6.60;;;;;;;29.08;68.41;98486.91;5112143;28;20596;-56
2023/07/16 07:45:19;;;;;;;9.80;7.15;;;;;;;29.20;68.36;98487.00;5111984;28;20175;-56
2023/07/16 07:47:44;;;;;;;15.63;7.28;;;;;;;29.32;66.94;98483.38;5111895;28;20759;-56
2023/07/16 07:50:10;;;;;;;9.43;6.80;;;;;;;29.52;66.50;98497.31;5113664;28;20183;-56
2023/07/16 07:52:35;;;;;;;11.90;6.30;;;;;;;29.60;66.13;98498.88;5115708;28;20578;-56
2023/07/16 07:55:01;;;;;;;12.70;6.60;;;;;;;29.59;66.71;98490.06;5115754;27;20206;-56
2023/07/16 07:57:26;;;;;;;8.52;6.72;;;;;;;29.57;66.45;98468.13;5115923;28;20206;-56
2023/07/16 07:59:56;;;;;;;9.93;6.88;;;;;;;29.68;66.37;98467.38;5115909;28;20171;-56
2023/07/16 08:02:23;;;;;;;10.18;7.22;;;;;;;29.95;65.27;98503.34;5115808;27;20300;-56
2023/07/16 08:04:50;;;;;;;7.97;7.13;;;;;;;29.71;64.54;98490.94;5115519;28;20213;-56
2023/07/16 08:07:16;;;;;;;8.75;7.60;;;;;;;29.83;65.39;98493.66;5116006;28;20265;-55
2023/07/16 08:09:41;;;;;;;8.80;6.90;;;;;;;30.04;63.66;98502.00;5115656;28;20257;-56
2023/07/16 08:12:07;;;;;;;10.60;7.10;;;;;;;29.88;64.21;98486.63;5115712;28;20171;-56
2023/07/16 08:14:32;;;;;;;7.07;6.40;;;;;;;29.95;64.50;98483.84;5115613;28;20179;-55
2023/07/16 08:16:58;;;;;;;10.23;7.35;;;;;;;30.07;64.93;98500.75;5115505;28;20252;-55
2023/07/16 08:19:23;;;;;;;10.57;6.72;;;;;;;30.02;63.81;98472.03;5115536;28;20226;-56
2023/07/16 08:21:49;;;;;;;11.13;7.30;;;;;;;30.08;63.80;98475.69;5115242;28;20171;-55
2023/07/16 08:24:14;;;;;;;9.77;7.20;;;;;;;30.17;63.51;98485.84;5115484;28;20675;-55
2023/07/16 08:26:39;;;;;;;10.05;7.38;;;;;;;30.23;63.04;98478.75;5115409;28;20232;-56
2023/07/16 08:29:05;;;;;;;15.68;7.00;;;;;;;30.44;62.71;98505.75;5115356;28;20625;-56
2023/07/16 08:31:30;;;;;;;13.10;7.00;;;;;;;30.39;61.83;98484.28;5114993;28;20198;-56
2023/07/16 08:33:55;;;;;;;13.10;6.78;;;;;;;30.50;61.21;98499.50;5115256;27;20210;-56
2023/07/16 08:36:21;;;;;;;8.88;6.45;;;;;;;30.53;61.62;98495.56;5115083;28;20262;-56
2023/07/16 08:38:46;;;;;;;8.43;6.63;;;;;;;30.56;62.38;98506.63;5115157;28;20206;-56
2023/07/16 08:41:12;;;;;;;8.82;6.68;;;;;;;30.62;61.86;98502.19;5114802;28;20195;-56
2023/07/16 08:43:39;;;;;;;23.85;7.85;;;;;;;30.38;62.14;98458.59;5114735;28;20171;-56
2023/07/16 08:46:05;;;;;;;9.25;6.93;;;;;;;30.62;62.53;98489.66;5114971;27;20164;-56
2023/07/16 08:48:30;;;;;;;8.30;7.03;;;;;;;30.58;62.59;98482.31;5114902;28;20199;-56
2023/07/16 08:51:01;;;;;;;7.63;6.18;;;;;;;30.60;61.70;98474.91;5114666;28;20167;-56
2023/07/16 08:53:26;;;;;;;10.50;6.93;;;;;;;30.49;61.25;98457.00;5114965;28;20665;-55
2023/07/16 08:55:52;;;;;;;11.90;7.50;;;;;;;30.71;61.58;98482.97;5115059;28;20257;-56
2023/07/16 08:58:18;;;;;;;7.47;6.70;;;;;;;30.69;61.41;98485.06;5114587;28;20577;-56
2023/07/16 09:00:44;;;;;;;9.45;6.50;;;;;;;30.50;61.12;98455.97;5114860;28;20568;-57
2023/07/16 09:03:14;;;;;;;7.68;6.65;;;;;;;30.82;61.55;98484.84;5114058;28;20189;-56
2023/07/16 09:05:40;;;;;;;6.70;6.05;;;;;;;30.95;60.56;98489.94;5114537;28;20187;-57
2023/07/16 09:08:06;;;;;;;7.43;6.60;;;;;;;30.99;60.45;98491.13;5114579;28;20232;-55
2023/07/16 09:10:32;;;;;;;12.68;7.75;;;;;;;30.80;60.85;98476.25;5114416;28;20194;-55
2023/07/16 09:12:58;;;;;;;11.70;6.80;;;;;;;30.69;60.87;98473.53;5114247;28;20657;-56
2023/07/16 09:15:24;;;;;;;10.57;6.90;;;;;;;30.71;61.05;98472.28;5114200;28;20171;-56
2023/07/16 09:17:50;;;;;;;11.52;7.60;;;;;;;30.66;61.70;98455.31;5114400;28;20229;-56
2023/07/16 09:20:16;;;;;;;8.23;6.97;;;;;;;30.50;62.13;98469.31;5114372;28;20190;-56
2023/07/16 09:22:42;;;;;;;7.85;7.00;;;;;;;30.59;61.07;98484.78;5114370;28;20207;-57
2023/07/16 09:25:08;;;;;;;11.55;7.13;;;;;;;30.54;61.86;98465.94;5114161;28;20228;-56
2023/07/16 09:27:33;;;;;;;11.13;7.13;;;;;;;30.58;63.57;98451.09;5114218;27;20601;-56
2023/07/16 09:30:02;;;;;;;8.02;6.78;;;;;;;30.81;61.91;98456.47;5114173;28;20206;-57
2023/07/16 09:32:39;;;;;;;7.57;6.85;;;;;;;31.04;60.74;98459.16;5114151;28;20252;-55
2023/07/16 09:35:18;;;;;;;9.05;7.03;;;;;;;31.10;60.26;98447.53;5114090;28;20735;-55
2023/07/16 09:37:43;;;;;;;7.80;6.88;;;;;;;31.43;59.80;98471.78;5113982;28;20199;-56
2023/07/16 09:40:12;;;;;;;7.90;7.15;;;;;;;31.54;59.22;98475.50;5113665;28;20178;-56
2023/07/16 09:42:40;;;;;;;10.27;7.28;;;;;;;31.51;58.24;98447.34;5113601;28;20604;-56
2023/07/16 09:45:07;;;;;;;7.90;7.10;;;;;;;31.64;58.02;98459.63;5113878;28;20248;-56
2023/07/16 09:47:33;;;;;;;11.45;7.47;;;;;;;31.85;57.33;98478.59;5113783;28;20171;-56
2023/07/16 09:49:59;;;;;;;14.68;7.68;;;;;;;31.88;57.93;98462.03;5113872;28;20169;-56
2023/07/16 09:52:27;;;;;;;7.97;7.03;;;;;;;31.92;57.83;98454.31;5111178;28;20570;-56
2023/07/16 09:54:55;;;;;;;9.48;7.25;;;;;;;31.90;58.02;98451.91;5111147;28;20195;-56
2023/07/16 09:57:21;;;;;;;9.45;7.07;;;;;;;31.86;57.00;98442.72;5111128;28;20225;-56
2023/07/16 09:59:48;;;;;;;10.88;7.53;;;;;;;31.86;57.68;98447.25;5111457;28;20869;-56
2023/07/16 10:02:14;;;;;;;8.77;7.90;;;;;;;31.86;57.54;98437.38;5111038;28;20195;-56
2023/07/16 10:04:40;;;;;;;10.48;7.57;;;;;;;31.82;57.21;98432.75;5110954;28;20218;-56
2023/07/16 10:07:05;;;;;;;8.27;7.43;;;;;;;31.93;57.39;98451.41;5110905;28;20704;-56
2023/07/16 10:09:33;;;;;;;12.73;8.55;;;;;;;32.01;57.64;98452.91;5070101;28;20187;-56
2023/07/16 10:12:16;;;;;;;10.98;7.75;;;;;;;32.08;57.05;98443.69;5070267;28;20180;-56
2023/07/16 10:14:52;;;;;;;10.05;7.63;;;;;;;32.28;57.46;98449.41;5069256;28;20213;-56
2023/07/16 10:17:23;;;;;;;10.48;7.28;;;;;;;32.40;56.66;98454.72;5070056;28;20262;-56
2023/07/16 10:19:58;;;;;;;8.82;6.85;;;;;;;32.55;56.69;98450.41;5070094;28;20184;-56
2023/07/16 10:22:32;;;;;;;8.38;7.55;;;;;;;32.63;55.13;98447.31;5071826;28;20272;-56
2023/07/16 10:24:58;;;;;;;8.82;7.13;;;;;;;32.62;54.92;98418.88;5090362;28;20708;-56
2023/07/16 10:27:31;;;;;;;11.70;7.43;;;;;;;32.85;54.47;98429.44;5090289;28;20233;-56
2023/07/16 10:29:57;;;;;;;10.85;8.23;;;;;;;32.97;54.87;98440.88;5090330;28;20209;-56
2023/07/16 10:32:28;;;;;;;10.30;7.35;;;;;;;32.92;53.53;98422.03;5090200;28;20171;-56
2023/07/16 10:34:53;;;;;;;8.70;7.90;;;;;;;32.88;54.54;98418.22;5090183;28;20191;-56
2023/07/16 10:37:18;;;;;;;8.05;7.30;;;;;;;33.05;53.84;98418.22;5090058;28;20586;-56
2023/07/16 10:39:48;;;;;;;9.07;7.20;;;;;;;33.27;53.27;98421.75;5094144;28;20214;-56
2023/07/16 10:42:16;;;;;;;17.25;7.72;;;;;;;33.26;53.46;98403.97;5112828;28;20209;-56
2023/07/16 10:44:42;;;;;;;8.60;7.80;;;;;;;33.22;53.21;98392.94;5112805;28;20641;-56
2023/07/16 10:47:09;;;;;;;7.78;7.00;;;;;;;33.48;53.00;98396.78;5112717;28;20259;-57
2023/07/16 10:49:34;;;;;;;11.43;7.07;;;;;;;33.70;52.15;98392.97;5112686;28;20236;-56
2023/07/16 10:52:01;;;;;;;9.27;8.32;;;;;;;34.04;51.74;98405.19;5112659;28;20171;-56
2023/07/16 10:54:26;;;;;;;8.60;6.88;;;;;;;34.15;50.28;98380.03;5112877;28;20179;-56
2023/07/16 10:56:52;;;;;;;8.35;7.07;;;;;;;34.44;50.31;98413.63;5112489;28;20623;-56
2023/07/16 10:59:18;;;;;;;9.65;6.97;;;;;;;34.40;49.56;98400.97;5112524;28;20171;-57
2023/07/16 11:01:44;;;;;;;7.72;6.85;;;;;;;34.62;49.12;98405.16;5112454;28;20209;-55
2023/07/16 11:04:09;;;;;;;9.23;6.65;;;;;;;34.59;49.11;98376.09;5112524;28;20175;-55
2023/07/16 11:06:35;;;;;;;7.75;7.00;;;;;;;34.98;49.11;98398.16;5112598;28;20269;-56
2023/07/16 11:09:10;;;;;;;10.20;7.13;;;;;;;35.00;48.07;98383.38;5112431;28;20179;-56
2023/07/16 11:11:36;;;;;;;9.65;7.03;;;;;;;35.18;48.26;98377.53;5112382;28;20167;-56
2023/07/16 11:14:08;;;;;;;7.90;7.07;;;;;;;35.28;47.40;98387.56;5112648;28;20225;-56
2023/07/16 11:16:35;;;;;;;10.90;7.43;;;;;;;35.01;47.83;98359.94;5112174;28;20175;-56
2023/07/16 11:19:05;;;;;;;11.82;7.68;;;;;;;35.09;47.61;98367.53;5112043;28;20217;-58
2023/07/16 11:21:33;;;;;;;10.40;7.05;;;;;;;34.85;47.49;98361.75;5112266;28;20254;-57
2023/07/16 11:24:08;;;;;;;10.15;7.55;;;;;;;35.29;47.27;98389.16;5089254;28;20195;-56
2023/07/16 11:26:33;;;;;;;8.93;8.02;;;;;;;35.55;45.79;98386.31;5093654;28;20180;-57
2023/07/16 11:28:59;;;;;;;11.25;6.63;;;;;;;35.75;45.95;98389.09;5093672;28;20593;-57